sensor_id;sensor_type;location;lat;lon;timestamp;pressure;altitude;pressure_sealevel;temperature;humidity
14790;BME280;7486;51.010;10.366;2023-12-20T00:00:08;97985.66;;;1.38;92.02
14790;BME280;7486;51.010;10.366;2023-12-20T00:02:54;98007.41;;;1.46;91.47
14790;BME280;7486;51.010;10.366;2023-12-20T00:05:40;98011.41;;;1.58;92.29
14790;BME280;7486;51.010;10.366;2023-12-20T00:08:25;98009.72;;;1.49;92.32
14790;BME280;7486;51.010;10.366;2023-12-20T00:11:10;97998.66;;;1.55;92.32
14790;BME280;7486;51.010;10.366;2023-12-20T00:13:56;97995.72;;;1.50;92.11
14790;BME280;7486;51.010;10.366;2023-12-20T00:16:41;97993.13;;;1.58;91.77
14790;BME280;7486;51.010;10.366;2023-12-20T00:19:27;97983.00;;;1.55;91.96
14790;BME280;7486;51.010;10.366;2023-12-20T00:22:13;97996.38;;;1.52;92.07
14790;BME280;7486;51.010;10.366;2023-12-20T00:24:58;97987.81;;;1.42;92.71
14790;BME280;7486;51.010;10.366;2023-12-20T00:27:43;98000.69;;;1.44;92.75
14790;BME280;7486;51.010;10.366;2023-12-20T00:30:29;98000.31;;;1.56;92.92
14790;BME280;7486;51.010;10.366;2023-12-20T00:33:14;97968.06;;;1.40;92.81
14790;BME280;7486;51.010;10.366;2023-12-20T00:36:00;97995.63;;;1.68;92.17
14790;BME280;7486;51.010;10.366;2023-12-20T00:38:46;97993.50;;;1.63;92.33
14790;BME280;7486;51.010;10.366;2023-12-20T00:41:32;97992.78;;;1.53;92.47
14790;BME280;7486;51.010;10.366;2023-12-20T00:44:17;97994.47;;;1.37;93.73
14790;BME280;7486;51.010;10.366;2023-12-20T00:47:03;97996.22;;;1.54;92.98
14790;BME280;7486;51.010;10.366;2023-12-20T00:49:48;97991.44;;;1.49;93.19
14790;BME280;7486;51.010;10.366;2023-12-20T00:52:34;97990.69;;;1.57;93.45
14790;BME280;7486;51.010;10.366;2023-12-20T00:55:19;98000.31;;;1.56;93.01
14790;BME280;7486;51.010;10.366;2023-12-20T00:58:05;97992.22;;;1.68;92.70
14790;BME280;7486;51.010;10.366;2023-12-20T01:00:50;98000.66;;;1.61;92.58
14790;BME280;7486;51.010;10.366;2023-12-20T01:03:36;97996.31;;;1.44;93.48
14790;BME280;7486;51.010;10.366;2023-12-20T01:06:22;97992.63;;;1.55;93.54
14790;BME280;7486;51.010;10.366;2023-12-20T01:09:07;97997.00;;;1.54;93.77
14790;BME280;7486;51.010;10.366;2023-12-20T01:11:53;97952.31;;;1.49;93.27
14790;BME280;7486;51.010;10.366;2023-12-20T01:14:39;97986.69;;;1.79;92.97
14790;BME280;7486;51.010;10.366;2023-12-20T01:17:24;97951.38;;;1.58;92.28
14790;BME280;7486;51.010;10.366;2023-12-20T01:20:10;97983.75;;;1.74;91.63
14790;BME280;7486;51.010;10.366;2023-12-20T01:22:55;97976.94;;;1.89;91.35
14790;BME280;7486;51.010;10.366;2023-12-20T01:25:41;97943.47;;;1.42;93.15
14790;BME280;7486;51.010;10.366;2023-12-20T01:28:26;97965.34;;;1.49;93.49
14790;BME280;7486;51.010;10.366;2023-12-20T01:31:12;97974.28;;;1.73;92.91
14790;BME280;7486;51.010;10.366;2023-12-20T01:33:57;97882.09;;;1.38;91.77
14790;BME280;7486;51.010;10.366;2023-12-20T01:36:43;97961.69;;;1.68;92.15
14790;BME280;7486;51.010;10.366;2023-12-20T01:39:29;97966.88;;;1.60;92.39
14790;BME280;7486;51.010;10.366;2023-12-20T01:42:15;97953.63;;;1.53;92.75
14790;BME280;7486;51.010;10.366;2023-12-20T01:45:00;97969.69;;;1.67;92.76
14790;BME280;7486;51.010;10.366;2023-12-20T01:47:46;97962.88;;;1.74;93.36
14790;BME280;7486;51.010;10.366;2023-12-20T01:50:37;97965.31;;;1.75;93.02
14790;BME280;7486;51.010;10.366;2023-12-20T01:53:25;97967.47;;;1.80;93.06
14790;BME280;7486;51.010;10.366;2023-12-20T01:56:11;97944.28;;;1.77;92.04
14790;BME280;7486;51.010;10.366;2023-12-20T01:58:57;97968.44;;;1.79;92.19
14790;BME280;7486;51.010;10.366;2023-12-20T02:04:32;97891.50;;;1.57;91.43
14790;BME280;7486;51.010;10.366;2023-12-20T02:07:18;97938.28;;;1.92;91.49
14790;BME280;7486;51.010;10.366;2023-12-20T02:10:04;97886.16;;;1.67;91.44
14790;BME280;7486;51.010;10.366;2023-12-20T02:12:50;97951.91;;;2.12;90.47
14790;BME280;7486;51.010;10.366;2023-12-20T02:15:36;97795.59;;;1.17;90.65
14790;BME280;7486;51.010;10.366;2023-12-20T02:18:21;97872.41;;;1.56;90.77
14790;BME280;7486;51.010;10.366;2023-12-20T02:21:09;97940.56;;;1.87;91.99
14790;BME280;7486;51.010;10.366;2023-12-20T02:23:54;97734.91;;;0.73;91.39
14790;BME280;7486;51.010;10.366;2023-12-20T02:26:40;97880.25;;;1.64;91.98
14790;BME280;7486;51.010;10.366;2023-12-20T02:29:30;97843.03;;;1.21;93.02
14790;BME280;7486;51.010;10.366;2023-12-20T02:32:17;97868.16;;;1.55;93.29
14790;BME280;7486;51.010;10.366;2023-12-20T02:35:03;97817.09;;;1.11;92.76
14790;BME280;7486;51.010;10.366;2023-12-20T02:37:48;97895.91;;;1.64;92.78
14790;BME280;7486;51.010;10.366;2023-12-20T02:40:34;97901.75;;;1.50;93.70
14790;BME280;7486;51.010;10.366;2023-12-20T02:43:20;97904.16;;;1.86;93.19
14790;BME280;7486;51.010;10.366;2023-12-20T02:46:06;97807.41;;;1.29;92.45
14790;BME280;7486;51.010;10.366;2023-12-20T02:48:52;97853.00;;;1.59;92.15
14790;BME280;7486;51.010;10.366;2023-12-20T02:51:37;97878.13;;;1.68;92.87
14790;BME280;7486;51.010;10.366;2023-12-20T02:54:22;97889.78;;;1.82;92.58
14790;BME280;7486;51.010;10.366;2023-12-20T02:57:08;97884.56;;;1.82;92.35
14790;BME280;7486;51.010;10.366;2023-12-20T02:59:53;97931.66;;;2.14;91.86
14790;BME280;7486;51.010;10.366;2023-12-20T03:02:39;97624.16;;;0.35;91.38
14790;BME280;7486;51.010;10.366;2023-12-20T03:05:24;97843.22;;;1.69;91.93
14790;BME280;7486;51.010;10.366;2023-12-20T03:08:10;97877.59;;;2.06;91.30
14790;BME280;7486;51.010;10.366;2023-12-20T03:10:55;97822.81;;;1.56;91.70
14790;BME280;7486;51.010;10.366;2023-12-20T03:13:41;97866.63;;;1.87;92.00
14790;BME280;7486;51.010;10.366;2023-12-20T03:16:26;97825.25;;;1.58;91.95
14790;BME280;7486;51.010;10.366;2023-12-20T03:19:12;97863.78;;;1.72;92.63
14790;BME280;7486;51.010;10.366;2023-12-20T03:21:57;97871.00;;;1.70;92.92
14790;BME280;7486;51.010;10.366;2023-12-20T03:24:43;97858.22;;;1.59;92.76
14790;BME280;7486;51.010;10.366;2023-12-20T03:27:29;97749.19;;;0.87;93.81
14790;BME280;7486;51.010;10.366;2023-12-20T03:30:14;97775.91;;;1.23;93.33
14790;BME280;7486;51.010;10.366;2023-12-20T03:33:00;97792.69;;;1.28;93.40
14790;BME280;7486;51.010;10.366;2023-12-20T03:35:48;97846.94;;;1.58;93.24
14790;BME280;7486;51.010;10.366;2023-12-20T03:38:34;97871.47;;;1.32;95.48
14790;BME280;7486;51.010;10.366;2023-12-20T03:41:19;97900.34;;;1.72;95.08
14790;BME280;7486;51.010;10.366;2023-12-20T03:44:05;97904.69;;;1.55;95.38
14790;BME280;7486;51.010;10.366;2023-12-20T03:46:51;97902.53;;;1.51;96.22
14790;BME280;7486;51.010;10.366;2023-12-20T03:49:36;97925.44;;;1.65;96.01
14790;BME280;7486;51.010;10.366;2023-12-20T03:52:22;97907.25;;;1.47;96.48
14790;BME280;7486;51.010;10.366;2023-12-20T03:55:08;97906.16;;;1.50;96.94
14790;BME280;7486;51.010;10.366;2023-12-20T03:57:54;97871.22;;;1.17;97.67
14790;BME280;7486;51.010;10.366;2023-12-20T04:00:39;97863.88;;;0.87;99.52
14790;BME280;7486;51.010;10.366;2023-12-20T04:03:25;97867.91;;;1.07;100.00
14790;BME280;7486;51.010;10.366;2023-12-20T04:06:16;97886.75;;;1.52;98.75
14790;BME280;7486;51.010;10.366;2023-12-20T04:09:02;97894.25;;;1.55;96.98
14790;BME280;7486;51.010;10.366;2023-12-20T04:11:47;97921.56;;;1.69;97.40
14790;BME280;7486;51.010;10.366;2023-12-20T04:14:33;97900.25;;;1.90;96.00
14790;BME280;7486;51.010;10.366;2023-12-20T04:17:18;97886.50;;;1.80;95.44
14790;BME280;7486;51.010;10.366;2023-12-20T04:20:06;97810.97;;;1.28;95.21
14790;BME280;7486;51.010;10.366;2023-12-20T04:22:52;97924.44;;;2.00;94.33
14790;BME280;7486;51.010;10.366;2023-12-20T04:25:37;97866.69;;;1.61;94.44
14790;BME280;7486;51.010;10.366;2023-12-20T04:28:22;97785.47;;;1.14;94.58
14790;BME280;7486;51.010;10.366;2023-12-20T04:31:08;97915.97;;;1.98;95.06
14790;BME280;7486;51.010;10.366;2023-12-20T04:33:54;97943.94;;;2.22;94.10
14790;BME280;7486;51.010;10.366;2023-12-20T04:36:39;97917.81;;;2.30;93.95
14790;BME280;7486;51.010;10.366;2023-12-20T04:39:26;97878.72;;;1.96;93.46
14790;BME280;7486;51.010;10.366;2023-12-20T04:42:11;97904.91;;;2.12;93.80
14790;BME280;7486;51.010;10.366;2023-12-20T04:44:57;97840.63;;;1.69;93.17
14790;BME280;7486;51.010;10.366;2023-12-20T04:47:43;97925.81;;;2.28;94.09
14790;BME280;7486;51.010;10.366;2023-12-20T04:50:29;97900.47;;;2.12;94.00
14790;BME280;7486;51.010;10.366;2023-12-20T04:53:14;97830.16;;;1.61;93.93
14790;BME280;7486;51.010;10.366;2023-12-20T04:55:59;97894.75;;;2.09;93.54
14790;BME280;7486;51.010;10.366;2023-12-20T04:58:45;97950.34;;;2.43;93.50
14790;BME280;7486;51.010;10.366;2023-12-20T05:01:31;97937.75;;;2.31;93.58
14790;BME280;7486;51.010;10.366;2023-12-20T05:04:16;97897.63;;;1.90;94.50
14790;BME280;7486;51.010;10.366;2023-12-20T05:07:02;97938.41;;;2.41;93.62
14790;BME280;7486;51.010;10.366;2023-12-20T05:09:47;97877.91;;;1.95;93.77
14790;BME280;7486;51.010;10.366;2023-12-20T05:12:33;97826.38;;;1.55;93.88
14790;BME280;7486;51.010;10.366;2023-12-20T05:15:19;97881.50;;;1.94;94.24
14790;BME280;7486;51.010;10.366;2023-12-20T05:18:04;97791.38;;;1.24;94.63
14790;BME280;7486;51.010;10.366;2023-12-20T05:20:52;97904.50;;;1.91;95.45
14790;BME280;7486;51.010;10.366;2023-12-20T05:23:42;97879.03;;;1.85;95.50
14790;BME280;7486;51.010;10.366;2023-12-20T05:26:27;97871.78;;;1.62;95.37
14790;BME280;7486;51.010;10.366;2023-12-20T05:29:13;97921.91;;;1.74;95.81
14790;BME280;7486;51.010;10.366;2023-12-20T05:31:58;97858.78;;;1.37;96.26
14790;BME280;7486;51.010;10.366;2023-12-20T05:34:44;97878.34;;;1.33;96.92
14790;BME280;7486;51.010;10.366;2023-12-20T05:37:29;97911.50;;;1.40;96.39
14790;BME280;7486;51.010;10.366;2023-12-20T05:40:15;97960.19;;;1.57;96.72
14790;BME280;7486;51.010;10.366;2023-12-20T05:43:01;97847.81;;;0.74;95.89
14790;BME280;7486;51.010;10.366;2023-12-20T05:45:46;97973.00;;;1.51;96.42
14790;BME280;7486;51.010;10.366;2023-12-20T05:48:32;97972.94;;;1.60;96.92
14790;BME280;7486;51.010;10.366;2023-12-20T05:51:17;97929.31;;;1.53;94.81
14790;BME280;7486;51.010;10.366;2023-12-20T05:54:03;97870.00;;;1.29;94.89
14790;BME280;7486;51.010;10.366;2023-12-20T05:56:48;97914.28;;;1.81;93.28
14790;BME280;7486;51.010;10.366;2023-12-20T05:59:34;97913.94;;;1.92;91.58
14790;BME280;7486;51.010;10.366;2023-12-20T06:02:20;97962.09;;;2.31;90.68
14790;BME280;7486;51.010;10.366;2023-12-20T06:05:06;97946.63;;;1.88;90.29
14790;BME280;7486;51.010;10.366;2023-12-20T06:07:52;97989.16;;;2.14;90.52
14790;BME280;7486;51.010;10.366;2023-12-20T06:10:37;97921.91;;;1.74;90.57
14790;BME280;7486;51.010;10.366;2023-12-20T06:13:23;97961.97;;;1.99;90.39
14790;BME280;7486;51.010;10.366;2023-12-20T06:16:08;97961.19;;;1.98;89.35
14790;BME280;7486;51.010;10.366;2023-12-20T06:18:54;97995.84;;;2.17;89.90
14790;BME280;7486;51.010;10.366;2023-12-20T06:21:40;97930.84;;;1.72;90.15
14790;BME280;7486;51.010;10.366;2023-12-20T06:24:29;97959.78;;;1.78;89.09
14790;BME280;7486;51.010;10.366;2023-12-20T06:27:15;97941.28;;;1.63;90.13
14790;BME280;7486;51.010;10.366;2023-12-20T06:30:00;97956.97;;;1.72;89.81
14790;BME280;7486;51.010;10.366;2023-12-20T06:32:46;97987.59;;;1.95;89.94
14790;BME280;7486;51.010;10.366;2023-12-20T06:35:31;97917.19;;;1.44;89.46
14790;BME280;7486;51.010;10.366;2023-12-20T06:38:21;97893.81;;;1.26;89.56
14790;BME280;7486;51.010;10.366;2023-12-20T06:41:06;97985.97;;;1.60;90.17
14790;BME280;7486;51.010;10.366;2023-12-20T06:43:52;97957.16;;;1.44;89.81
14790;BME280;7486;51.010;10.366;2023-12-20T06:46:38;97890.13;;;1.11;89.16
14790;BME280;7486;51.010;10.366;2023-12-20T06:49:23;98002.06;;;1.82;89.34
14790;BME280;7486;51.010;10.366;2023-12-20T06:52:09;97970.50;;;1.41;88.87
14790;BME280;7486;51.010;10.366;2023-12-20T06:54:54;98002.09;;;1.56;89.63
14790;BME280;7486;51.010;10.366;2023-12-20T06:57:39;97968.47;;;1.53;88.02
14790;BME280;7486;51.010;10.366;2023-12-20T07:00:25;97946.38;;;1.39;87.16
14790;BME280;7486;51.010;10.366;2023-12-20T07:03:10;98010.38;;;1.51;86.82
14790;BME280;7486;51.010;10.366;2023-12-20T07:05:56;97863.69;;;0.62;86.22
14790;BME280;7486;51.010;10.366;2023-12-20T07:08:41;97939.19;;;0.90;86.44
14790;BME280;7486;51.010;10.366;2023-12-20T07:11:27;97958.34;;;0.98;86.73
14790;BME280;7486;51.010;10.366;2023-12-20T07:14:12;97989.66;;;1.24;86.41
14790;BME280;7486;51.010;10.366;2023-12-20T07:16:58;97924.44;;;0.81;86.69
14790;BME280;7486;51.010;10.366;2023-12-20T07:19:44;97946.88;;;1.17;86.43
14790;BME280;7486;51.010;10.366;2023-12-20T07:22:30;97944.53;;;1.06;85.41
14790;BME280;7486;51.010;10.366;2023-12-20T07:25:17;97962.69;;;1.16;86.12
14790;BME280;7486;51.010;10.366;2023-12-20T07:28:03;97962.91;;;1.22;86.62
14790;BME280;7486;51.010;10.366;2023-12-20T07:30:48;97840.53;;;0.16;87.69
14790;BME280;7486;51.010;10.366;2023-12-20T07:33:34;97977.25;;;1.00;89.24
14790;BME280;7486;51.010;10.366;2023-12-20T07:36:24;97936.97;;;0.59;91.12
14790;BME280;7486;51.010;10.366;2023-12-20T07:39:10;97976.50;;;1.08;90.58
14790;BME280;7486;51.010;10.366;2023-12-20T07:41:55;98020.06;;;1.33;89.90
14790;BME280;7486;51.010;10.366;2023-12-20T07:44:40;97940.44;;;1.03;89.75
14790;BME280;7486;51.010;10.366;2023-12-20T07:47:26;97929.13;;;0.95;89.71
14790;BME280;7486;51.010;10.366;2023-12-20T07:50:11;97991.03;;;1.10;90.49
14790;BME280;7486;51.010;10.366;2023-12-20T07:52:57;97992.03;;;0.92;92.05
14790;BME280;7486;51.010;10.366;2023-12-20T07:55:43;97945.94;;;0.83;92.11
14790;BME280;7486;51.010;10.366;2023-12-20T07:58:28;97802.66;;;-0.31;92.13
14790;BME280;7486;51.010;10.366;2023-12-20T08:01:29;97975.75;;;0.80;92.52
14790;BME280;7486;51.010;10.366;2023-12-20T08:04:15;98009.97;;;1.13;91.38
14790;BME280;7486;51.010;10.366;2023-12-20T08:07:01;98033.56;;;1.29;89.99
14790;BME280;7486;51.010;10.366;2023-12-20T08:09:46;97889.28;;;0.24;90.32
14790;BME280;7486;51.010;10.366;2023-12-20T08:12:32;98009.16;;;0.94;91.07
14790;BME280;7486;51.010;10.366;2023-12-20T08:15:17;98005.41;;;0.97;90.56
14790;BME280;7486;51.010;10.366;2023-12-20T08:18:03;98012.03;;;1.27;89.53
14790;BME280;7486;51.010;10.366;2023-12-20T08:20:49;97995.19;;;1.03;89.00
14790;BME280;7486;51.010;10.366;2023-12-20T08:23:34;97965.72;;;0.85;88.97
14790;BME280;7486;51.010;10.366;2023-12-20T08:26:20;98047.88;;;1.25;90.06
14790;BME280;7486;51.010;10.366;2023-12-20T08:29:05;97873.88;;;0.30;89.70
14790;BME280;7486;51.010;10.366;2023-12-20T08:31:54;97923.81;;;0.61;90.02
14790;BME280;7486;51.010;10.366;2023-12-20T08:34:40;97966.00;;;1.00;89.96
14790;BME280;7486;51.010;10.366;2023-12-20T08:37:26;97969.81;;;1.05;88.65
14790;BME280;7486;51.010;10.366;2023-12-20T08:40:11;97987.88;;;1.07;88.99
14790;BME280;7486;51.010;10.366;2023-12-20T08:42:57;97972.66;;;0.94;88.68
14790;BME280;7486;51.010;10.366;2023-12-20T08:45:42;97951.56;;;0.88;88.80
14790;BME280;7486;51.010;10.366;2023-12-20T08:48:28;98023.22;;;1.19;88.52
14790;BME280;7486;51.010;10.366;2023-12-20T08:51:14;97980.91;;;0.90;88.89
14790;BME280;7486;51.010;10.366;2023-12-20T08:54:00;98005.69;;;1.11;89.15
14790;BME280;7486;51.010;10.366;2023-12-20T08:56:46;98022.91;;;1.22;89.30
14790;BME280;7486;51.010;10.366;2023-12-20T08:59:31;98002.06;;;1.30;88.29
14790;BME280;7486;51.010;10.366;2023-12-20T09:02:17;97842.44;;;0.14;87.88
14790;BME280;7486;51.010;10.366;2023-12-20T09:05:03;97995.03;;;1.23;87.92
14790;BME280;7486;51.010;10.366;2023-12-20T09:07:49;97930.63;;;0.97;87.37
14790;BME280;7486;51.010;10.366;2023-12-20T09:10:35;98000.97;;;1.58;86.75
14790;BME280;7486;51.010;10.366;2023-12-20T09:13:20;97858.72;;;0.51;87.35
14790;BME280;7486;51.010;10.366;2023-12-20T09:16:06;97762.88;;;-0.06;87.67
14790;BME280;7486;51.010;10.366;2023-12-20T09:18:51;97854.97;;;0.72;87.43
14790;BME280;7486;51.010;10.366;2023-12-20T09:21:37;97980.44;;;1.38;87.32
14790;BME280;7486;51.010;10.366;2023-12-20T09:24:23;97987.44;;;1.37;87.97
14790;BME280;7486;51.010;10.366;2023-12-20T09:27:08;97845.41;;;0.54;87.87
14790;BME280;7486;51.010;10.366;2023-12-20T09:29:54;98002.59;;;1.34;87.81
14790;BME280;7486;51.010;10.366;2023-12-20T09:32:39;98027.94;;;1.67;87.41
14790;BME280;7486;51.010;10.366;2023-12-20T09:35:25;97931.34;;;1.07;86.96
14790;BME280;7486;51.010;10.366;2023-12-20T09:38:12;97979.75;;;1.53;86.62
14790;BME280;7486;51.010;10.366;2023-12-20T09:40:57;97999.38;;;1.66;86.70
14790;BME280;7486;51.010;10.366;2023-12-20T09:43:43;97999.25;;;1.75;86.14
14790;BME280;7486;51.010;10.366;2023-12-20T09:46:28;97988.97;;;1.74;85.30
14790;BME280;7486;51.010;10.366;2023-12-20T09:49:19;98001.59;;;1.86;85.86
14790;BME280;7486;51.010;10.366;2023-12-20T09:52:07;97959.06;;;1.68;85.13
14790;BME280;7486;51.010;10.366;2023-12-20T09:54:55;97991.19;;;1.60;86.08
14790;BME280;7486;51.010;10.366;2023-12-20T09:57:42;97956.31;;;1.36;86.39
14790;BME280;7486;51.010;10.366;2023-12-20T10:00:28;97945.94;;;1.00;86.78
14790;BME280;7486;51.010;10.366;2023-12-20T10:03:15;97993.50;;;1.38;87.34
14790;BME280;7486;51.010;10.366;2023-12-20T10:06:01;97993.59;;;1.54;86.61
14790;BME280;7486;51.010;10.366;2023-12-20T10:08:46;97982.28;;;1.45;85.81
14790;BME280;7486;51.010;10.366;2023-12-20T10:11:32;97994.81;;;1.42;86.89
14790;BME280;7486;51.010;10.366;2023-12-20T10:14:21;98005.28;;;1.68;87.00
14790;BME280;7486;51.010;10.366;2023-12-20T10:17:07;97965.66;;;1.46;86.94
14790;BME280;7486;51.010;10.366;2023-12-20T10:19:52;97917.03;;;1.11;87.28
14790;BME280;7486;51.010;10.366;2023-12-20T10:22:38;97958.50;;;1.48;87.90
14790;BME280;7486;51.010;10.366;2023-12-20T10:25:25;97994.84;;;1.76;87.87
14790;BME280;7486;51.010;10.366;2023-12-20T10:28:12;97916.66;;;1.32;88.51
14790;BME280;7486;51.010;10.366;2023-12-20T10:30:59;97963.44;;;1.59;88.66
14790;BME280;7486;51.010;10.366;2023-12-20T10:33:44;97983.06;;;1.72;88.42
14790;BME280;7486;51.010;10.366;2023-12-20T10:36:31;97892.38;;;1.06;88.06
14790;BME280;7486;51.010;10.366;2023-12-20T10:39:17;97910.00;;;1.38;88.24
14790;BME280;7486;51.010;10.366;2023-12-20T10:42:03;97959.00;;;1.86;86.96
14790;BME280;7486;51.010;10.366;2023-12-20T10:44:51;97982.94;;;1.73;87.85
14790;BME280;7486;51.010;10.366;2023-12-20T10:47:37;97978.69;;;1.72;88.11
14790;BME280;7486;51.010;10.366;2023-12-20T10:50:26;97945.03;;;1.35;88.56
14790;BME280;7486;51.010;10.366;2023-12-20T10:53:12;97933.66;;;1.36;88.32
14790;BME280;7486;51.010;10.366;2023-12-20T10:56:00;97979.19;;;1.76;88.68
14790;BME280;7486;51.010;10.366;2023-12-20T10:58:48;97921.94;;;1.40;88.12
14790;BME280;7486;51.010;10.366;2023-12-20T11:01:35;97806.59;;;0.95;87.79
14790;BME280;7486;51.010;10.366;2023-12-20T11:04:36;97980.06;;;1.84;87.93
14790;BME280;7486;51.010;10.366;2023-12-20T11:08:12;97826.56;;;1.20;87.53
14790;BME280;7486;51.010;10.366;2023-12-20T11:11:05;97686.41;;;0.46;86.53
14790;BME280;7486;51.010;10.366;2023-12-20T11:14:05;97954.03;;;2.08;86.42
14790;BME280;7486;51.010;10.366;2023-12-20T11:17:05;97963.84;;;2.14;86.94
14790;BME280;7486;51.010;10.366;2023-12-20T11:22:52;97936.53;;;2.01;85.84
14790;BME280;7486;51.010;10.366;2023-12-20T11:25:56;97890.72;;;1.73;85.87
14790;BME280;7486;51.010;10.366;2023-12-20T11:28:42;97894.66;;;1.77;86.67
14790;BME280;7486;51.010;10.366;2023-12-20T11:31:27;97906.03;;;1.59;86.74
14790;BME280;7486;51.010;10.366;2023-12-20T11:34:13;97948.13;;;2.06;86.55
14790;BME280;7486;51.010;10.366;2023-12-20T11:37:00;97937.97;;;1.95;86.48
14790;BME280;7486;51.010;10.366;2023-12-20T11:40:06;97833.13;;;1.24;86.58
14790;BME280;7486;51.010;10.366;2023-12-20T11:42:52;97868.94;;;1.48;86.36
14790;BME280;7486;51.010;10.366;2023-12-20T11:45:37;97736.88;;;0.71;87.08
14790;BME280;7486;51.010;10.366;2023-12-20T11:48:38;97918.19;;;1.85;87.47
14790;BME280;7486;51.010;10.366;2023-12-20T11:51:24;97858.19;;;1.51;87.70
14790;BME280;7486;51.010;10.366;2023-12-20T11:54:13;97878.81;;;1.70;87.22
14790;BME280;7486;51.010;10.366;2023-12-20T11:56:59;97747.78;;;0.75;87.50
14790;BME280;7486;51.010;10.366;2023-12-20T11:59:44;97900.91;;;1.92;87.69
14790;BME280;7486;51.010;10.366;2023-12-20T12:02:30;97907.13;;;1.99;87.86
14790;BME280;7486;51.010;10.366;2023-12-20T12:05:16;97897.03;;;2.04;86.91
14790;BME280;7486;51.010;10.366;2023-12-20T12:08:02;97887.91;;;2.16;86.24
14790;BME280;7486;51.010;10.366;2023-12-20T12:10:49;97891.72;;;1.80;87.13
14790;BME280;7486;51.010;10.366;2023-12-20T12:13:35;97916.56;;;1.92;87.71
14790;BME280;7486;51.010;10.366;2023-12-20T12:16:20;97906.75;;;1.78;87.96
14790;BME280;7486;51.010;10.366;2023-12-20T12:19:07;97890.97;;;2.03;86.46
14790;BME280;7486;51.010;10.366;2023-12-20T12:22:08;97829.69;;;1.66;87.16
14790;BME280;7486;51.010;10.366;2023-12-20T12:24:59;97876.44;;;1.85;87.94
14790;BME280;7486;51.010;10.366;2023-12-20T12:27:55;97878.72;;;1.96;87.60
14790;BME280;7486;51.010;10.366;2023-12-20T12:30:41;97892.78;;;2.03;87.06
14790;BME280;7486;51.010;10.366;2023-12-20T12:33:38;97858.75;;;1.79;87.28
14790;BME280;7486;51.010;10.366;2023-12-20T12:36:23;97806.97;;;1.50;86.45
14790;BME280;7486;51.010;10.366;2023-12-20T12:39:12;97803.75;;;1.72;85.90
14790;BME280;7486;51.010;10.366;2023-12-20T12:41:57;97865.69;;;2.04;87.08
14790;BME280;7486;51.010;10.366;2023-12-20T12:44:43;97791.53;;;1.73;86.77
14790;BME280;7486;51.010;10.366;2023-12-20T12:47:28;97722.50;;;1.67;85.60
14790;BME280;7486;51.010;10.366;2023-12-20T12:50:14;97765.91;;;1.76;85.12
14790;BME280;7486;51.010;10.366;2023-12-20T12:52:59;97835.34;;;2.19;85.85
14790;BME280;7486;51.010;10.366;2023-12-20T12:55:45;97844.97;;;2.19;85.79
14790;BME280;7486;51.010;10.366;2023-12-20T12:58:30;97816.84;;;1.88;86.14
14790;BME280;7486;51.010;10.366;2023-12-20T13:01:16;97771.59;;;1.72;86.54
14790;BME280;7486;51.010;10.366;2023-12-20T13:04:02;97822.25;;;2.03;86.07
14790;BME280;7486;51.010;10.366;2023-12-20T13:06:47;97740.94;;;1.82;85.21
14790;BME280;7486;51.010;10.366;2023-12-20T13:09:33;97805.94;;;2.17;85.51
14790;BME280;7486;51.010;10.366;2023-12-20T13:12:19;97756.44;;;1.67;86.14
14790;BME280;7486;51.010;10.366;2023-12-20T13:15:05;97772.78;;;1.93;86.78
14790;BME280;7486;51.010;10.366;2023-12-20T13:17:51;97782.41;;;2.09;85.36
14790;BME280;7486;51.010;10.366;2023-12-20T13:20:37;97776.53;;;1.99;86.40
14790;BME280;7486;51.010;10.366;2023-12-20T13:23:22;97797.75;;;1.96;86.89
14790;BME280;7486;51.010;10.366;2023-12-20T13:26:10;97731.44;;;1.64;86.63
14790;BME280;7486;51.010;10.366;2023-12-20T13:28:55;97686.25;;;1.48;85.87
14790;BME280;7486;51.010;10.366;2023-12-20T13:31:41;97689.38;;;1.43;85.77
14790;BME280;7486;51.010;10.366;2023-12-20T13:34:26;97750.38;;;1.75;86.10
14790;BME280;7486;51.010;10.366;2023-12-20T13:37:12;97715.44;;;1.51;86.30
14790;BME280;7486;51.010;10.366;2023-12-20T13:39:58;97756.94;;;1.87;86.28
14790;BME280;7486;51.010;10.366;2023-12-20T13:42:43;97759.88;;;1.76;85.91
14790;BME280;7486;51.010;10.366;2023-12-20T13:45:28;97683.63;;;1.32;86.33
14790;BME280;7486;51.010;10.366;2023-12-20T13:48:14;97792.22;;;2.15;85.61
14790;BME280;7486;51.010;10.366;2023-12-20T13:50:59;97745.50;;;1.72;86.25
14790;BME280;7486;51.010;10.366;2023-12-20T13:53:45;97759.22;;;1.82;86.17
14790;BME280;7486;51.010;10.366;2023-12-20T13:56:30;97713.16;;;1.48;86.11
14790;BME280;7486;51.010;10.366;2023-12-20T13:59:19;97701.41;;;1.44;85.33
14790;BME280;7486;51.010;10.366;2023-12-20T14:02:04;97767.69;;;1.76;86.95
14790;BME280;7486;51.010;10.366;2023-12-20T14:04:50;97780.25;;;1.72;86.43
14790;BME280;7486;51.010;10.366;2023-12-20T14:07:36;97712.19;;;1.49;86.37
14790;BME280;7486;51.010;10.366;2023-12-20T14:10:22;97786.03;;;2.08;85.98
14790;BME280;7486;51.010;10.366;2023-12-20T14:13:08;97740.31;;;1.88;84.65
14790;BME280;7486;51.010;10.366;2023-12-20T14:15:53;97800.38;;;2.20;84.73
14790;BME280;7486;51.010;10.366;2023-12-20T14:18:38;97790.44;;;2.07;85.00
14790;BME280;7486;51.010;10.366;2023-12-20T14:21:24;97801.53;;;2.01;85.63
14790;BME280;7486;51.010;10.366;2023-12-20T14:24:09;97812.31;;;1.98;85.55
14790;BME280;7486;51.010;10.366;2023-12-20T14:26:55;97805.75;;;1.94;85.91
14790;BME280;7486;51.010;10.366;2023-12-20T14:29:40;97737.31;;;1.58;85.54
14790;BME280;7486;51.010;10.366;2023-12-20T14:32:25;97806.59;;;2.19;85.15
14790;BME280;7486;51.010;10.366;2023-12-20T14:35:11;97814.09;;;2.14;85.13
14790;BME280;7486;51.010;10.366;2023-12-20T14:37:58;97802.84;;;2.46;83.40
14790;BME280;7486;51.010;10.366;2023-12-20T14:40:43;97725.59;;;1.87;83.29
14790;BME280;7486;51.010;10.366;2023-12-20T14:43:29;97813.78;;;2.41;83.32
14790;BME280;7486;51.010;10.366;2023-12-20T14:46:14;97813.47;;;2.36;84.08
14790;BME280;7486;51.010;10.366;2023-12-20T14:49:00;97807.41;;;2.44;83.40
14790;BME280;7486;51.010;10.366;2023-12-20T14:51:45;97808.38;;;2.35;83.75
14790;BME280;7486;51.010;10.366;2023-12-20T14:54:31;97807.41;;;2.36;84.09
14790;BME280;7486;51.010;10.366;2023-12-20T14:57:16;97827.16;;;2.30;83.38